Time;durP1;ratioP1;P1;durP2;ratioP2;P2;SDS_P1;SDS_P2;PMS_P1;PMS_P2;Temp;Humidity;BMP_temperature;BMP_pressure;BME280_temperature;BME280_humidity;BME280_pressure;Samples;Min_cycle;Max_cycle;Signal;HPM_P1;HPM_P2
2021/09/03 00:00:39;;;;;;;;;;;;;;;;;;2091730;28;1979;-82
2021/09/03 00:01:40;;;;;;;;;;;;;;;;;;2075879;28;1271;-82
2021/09/03 00:02:42;;;;;;;;;;;;;;;;;;2075904;28;1535;-82
2021/09/03 00:03:43;;;;;;;;;;;;;;;;;;2091991;28;915;-83
2021/09/03 00:04:45;;;;;;;;;;;;;;;;;;2092436;28;1671;-81
2021/09/03 00:05:45;;;;;;;;;;;;;;;;;;2083967;28;1621;-81
2021/09/03 00:06:47;;;;;;;;;;;;;;;;;;2084154;28;1609;-82
2021/09/03 00:07:48;;;;;;;;;;;;;;;;;;2083836;28;1674;-81
2021/09/03 00:08:50;;;;;;;;;;;;;;;;;;2084030;28;1251;-82
2021/09/03 00:09:50;;;;;;;;;;;;;;;;;;2092147;28;1685;-83
2021/09/03 00:10:52;;;;;;;;;;;;;;;;;;2091947;28;1542;-83
2021/09/03 00:11:53;;;;;;;;;;;;;;;;;;2085739;28;1231;-83
2021/09/03 00:12:57;;;;;;;;;;;;;;;;;;2100670;28;799;-83
2021/09/03 00:13:58;;;;;;;;;;;;;;;;;;2091990;28;1377;-83
2021/09/03 00:14:59;;;;;;;;;;;;;;;;;;2083488;28;1443;-83
2021/09/03 00:16:00;;;;;;;;;;;;;;;;;;2075624;28;1322;-82
2021/09/03 00:17:04;;;;;;;;;;;;;;;;;;2083853;28;942;-82
2021/09/03 00:18:05;;;;;;;;;;;;;;;;;;2092203;28;1775;-83
2021/09/03 00:19:07;;;;;;;;;;;;;;;;;;2083924;28;1678;-83
2021/09/03 00:20:10;;;;;;;;;;;;;;;;;;2075588;28;1911;-83
2021/09/03 00:21:11;;;;;;;;;;;;;;;;;;2076511;28;1192;-83
2021/09/03 00:22:12;;;;;;;;;;;;;;;;;;2092469;28;1262;-83
2021/09/03 00:23:15;;;;;;;;;;;;;;;;;;2100899;28;1314;-83
2021/09/03 00:24:17;;;;;;;;;;;;;;;;;;2100417;28;1337;-83
2021/09/03 00:25:18;;;;;;;;;;;;;;;;;;2091772;28;1374;-83
2021/09/03 00:26:20;;;;;;;;;;;;;;;;;;2091895;28;1443;-83
2021/09/03 00:27:20;;;;;;;;;;;;;;;;;;2100427;28;1543;-83
2021/09/03 00:28:24;;;;;;;;;;;;;;;;;;2091984;28;1402;-83
2021/09/03 00:29:25;;;;;;;;;;;;;;;;;;2100372;28;860;-83
2021/09/03 00:30:27;;;;;;;;;;;;;;;;;;2100173;28;1297;-82
2021/09/03 00:31:29;;;;;;;;;;;;;;;;;;2083752;28;1247;-83
2021/09/03 00:32:30;;;;;;;;;;;;;;;;;;2091780;28;1359;-83
2021/09/03 00:33:31;;;;;;;;;;;;;;;;;;2099694;28;1227;-83
2021/09/03 00:34:33;;;;;;;;;;;;;;;;;;2091768;28;1218;-83
2021/09/03 00:35:34;;;;;;;;;;;;;;;;;;2091354;28;1354;-83
2021/09/03 00:36:36;;;;;;;;;;;;;;;;;;2092159;28;1620;-83
2021/09/03 00:37:37;;;;;;;;;;;;;;;;;;2091859;28;1229;-83
2021/09/03 00:38:38;;;;;;;;;;;;;;;;;;2092158;28;1577;-83
2021/09/03 00:39:39;;;;;;;;;;;;;;;;;;2099593;28;2059;-84
2021/09/03 00:40:41;;;;;;;;;;;;;;;;;;2091848;28;1971;-83
2021/09/03 00:41:42;;;;;;;;;;;;;;;;;;2099958;28;1373;-83
2021/09/03 00:42:43;;;;;;;;;;;;;;;;;;2100343;28;1433;-83
2021/09/03 00:43:46;;;;;;;;;;;;;;;;;;2091330;28;1295;-83
2021/09/03 00:44:48;;;;;;;;;;;;;;;;;;2083083;28;1283;-84
2021/09/03 00:45:49;;;;;;;;;;;;;;;;;;2083694;28;1463;-84
2021/09/03 00:46:51;;;;;;;;;;;;;;;;;;2083543;28;1243;-83
2021/09/03 00:47:51;;;;;;;;;;;;;;;;;;2091713;28;1314;-83
2021/09/03 00:48:53;;;;;;;;;;;;;;;;;;2091839;28;1302;-84
2021/09/03 00:49:54;;;;;;;;;;;;;;;;;;2075390;28;1468;-83
2021/09/03 00:50:57;;;;;;;;;;;;;;;;;;2083092;28;1351;-83
2021/09/03 00:51:58;;;;;;;;;;;;;;;;;;2091456;28;1239;-83
2021/09/03 00:53:00;;;;;;;;;;;;;;;;;;2091866;28;1676;-83
2021/09/03 00:54:01;;;;;;;;;;;;;;;;;;2091747;28;1237;-83
2021/09/03 00:55:04;;;;;;;;;;;;;;;;;;2079922;28;1635;-82
2021/09/03 00:56:05;;;;;;;;;;;;;;;;;;2091293;28;1361;-82
2021/09/03 00:57:08;;;;;;;;;;;;;;;;;;2091767;28;1273;-82
2021/09/03 00:58:09;;;;;;;;;;;;;;;;;;2091276;28;1187;-83
2021/09/03 00:59:12;;;;;;;;;;;;;;;;;;2083653;28;1628;-82
2021/09/03 01:00:13;;;;;;;;;;;;;;;;;;2096716;28;1989;-83
2021/09/03 01:01:17;;;;;;;;;;;;;;;;;;2099856;28;1692;-83
2021/09/03 01:02:18;;;;;;;;;;;;;;;;;;2091541;28;1453;-82
2021/09/03 01:03:20;;;;;;;;;;;;;;;;;;2100057;28;1200;-82
2021/09/03 01:04:21;;;;;;;;;;;;;;;;;;2090893;28;1223;-83
2021/09/03 01:05:23;;;;;;;;;;;;;;;;;;2099488;28;1365;-82
2021/09/03 01:06:24;;;;;;;;;;;;;;;;;;2100015;28;1547;-82
2021/09/03 01:07:26;;;;;;;;;;;;;;;;;;2092973;28;1760;-83
2021/09/03 01:08:27;;;;;;;;;;;;;;;;;;2083130;28;1658;-83
2021/09/03 01:09:30;;;;;;;;;;;;;;;;;;2091599;28;1235;-83
2021/09/03 01:10:30;;;;;;;;;;;;;;;;;;2091573;28;1218;-83
2021/09/03 01:11:32;;;;;;;;;;;;;;;;;;2091675;28;1350;-83
2021/09/03 01:12:33;;;;;;;;;;;;;;;;;;2091346;28;1195;-82
2021/09/03 01:13:35;;;;;;;;;;;;;;;;;;2091306;28;1235;-83
2021/09/03 01:14:37;;;;;;;;;;;;;;;;;;2091839;28;1728;-82
2021/09/03 01:15:39;;;;;;;;;;;;;;;;;;2091539;28;1364;-82
2021/09/03 01:16:40;;;;;;;;;;;;;;;;;;2091567;28;1251;-82
2021/09/03 01:17:42;;;;;;;;;;;;;;;;;;2091683;28;1392;-82
2021/09/03 01:18:43;;;;;;;;;;;;;;;;;;2091136;28;1780;-82
2021/09/03 01:19:45;;;;;;;;;;;;;;;;;;2083057;28;1310;-82
2021/09/03 01:20:45;;;;;;;;;;;;;;;;;;2083413;28;1906;-81
2021/09/03 01:21:49;;;;;;;;;;;;;;;;;;2084326;28;1506;-82
2021/09/03 01:22:50;;;;;;;;;;;;;;;;;;2091624;28;875;-82
2021/09/03 01:23:52;;;;;;;;;;;;;;;;;;2091538;28;1454;-82
2021/09/03 01:24:53;;;;;;;;;;;;;;;;;;2083096;28;1590;-82
2021/09/03 01:25:54;;;;;;;;;;;;;;;;;;2083428;28;1429;-82
2021/09/03 01:26:55;;;;;;;;;;;;;;;;;;2091671;28;1301;-82
2021/09/03 01:27:57;;;;;;;;;;;;;;;;;;2091357;28;1548;-82
2021/09/03 01:28:58;;;;;;;;;;;;;;;;;;2083343;28;1541;-82
2021/09/03 01:30:00;;;;;;;;;;;;;;;;;;2082817;28;1773;-81
2021/09/03 01:31:00;;;;;;;;;;;;;;;;;;2083061;28;1527;-82
2021/09/03 01:32:02;;;;;;;;;;;;;;;;;;2083038;28;1419;-82
2021/09/03 01:33:03;;;;;;;;;;;;;;;;;;2082921;28;1542;-82
2021/09/03 01:34:05;;;;;;;;;;;;;;;;;;2082556;28;1636;-84
2021/09/03 01:35:06;;;;;;;;;;;;;;;;;;2082853;28;1535;-82
2021/09/03 01:36:08;;;;;;;;;;;;;;;;;;2083378;28;1569;-82
2021/09/03 01:37:10;;;;;;;;;;;;;;;;;;2083275;28;1715;-82
2021/09/03 01:38:12;;;;;;;;;;;;;;;;;;2074945;28;1643;-82
2021/09/03 01:39:13;;;;;;;;;;;;;;;;;;2067111;28;1526;-81
2021/09/03 01:40:15;;;;;;;;;;;;;;;;;;2074891;28;2044;-82
2021/09/03 01:41:16;;;;;;;;;;;;;;;;;;2083287;28;1918;-82
2021/09/03 01:42:18;;;;;;;;;;;;;;;;;;2088097;28;1939;-83
2021/09/03 01:43:18;;;;;;;;;;;;;;;;;;2075400;28;1276;-82
2021/09/03 01:44:20;;;;;;;;;;;;;;;;;;2074803;28;1382;-82
2021/09/03 01:45:22;;;;;;;;;;;;;;;;;;2083113;28;1581;-81
2021/09/03 01:46:23;;;;;;;;;;;;;;;;;;2083101;28;1615;-82
2021/09/03 01:47:24;;;;;;;;;;;;;;;;;;2082857;28;1653;-85
2021/09/03 01:48:26;;;;;;;;;;;;;;;;;;2091467;28;1989;-81
2021/09/03 01:49:28;;;;;;;;;;;;;;;;;;2082501;28;1608;-82
2021/09/03 01:50:29;;;;;;;;;;;;;;;;;;2090376;28;1243;-82
2021/09/03 01:51:30;;;;;;;;;;;;;;;;;;2091036;28;1533;-82
2021/09/03 01:52:32;;;;;;;;;;;;;;;;;;2082816;28;1325;-82
2021/09/03 01:53:35;;;;;;;;;;;;;;;;;;2083088;28;1716;-82
2021/09/03 01:54:35;;;;;;;;;;;;;;;;;;2083353;28;1406;-81
2021/09/03 01:55:37;;;;;;;;;;;;;;;;;;2082635;28;1199;-81
2021/09/03 01:56:38;;;;;;;;;;;;;;;;;;2090242;28;1224;-81
2021/09/03 01:57:40;;;;;;;;;;;;;;;;;;2090281;28;1319;-81
2021/09/03 01:58:41;;;;;;;;;;;;;;;;;;2083016;28;1798;-81
2021/09/03 01:59:42;;;;;;;;;;;;;;;;;;2090768;28;1571;-82
2021/09/03 02:00:44;;;;;;;;;;;;;;;;;;2092401;28;1921;-82
2021/09/03 02:01:44;;;;;;;;;;;;;;;;;;2086768;28;1558;-82
2021/09/03 02:02:46;;;;;;;;;;;;;;;;;;2102517;28;1279;-82
2021/09/03 02:03:47;;;;;;;;;;;;;;;;;;2102314;28;1692;-82
2021/09/03 02:04:49;;;;;;;;;;;;;;;;;;2092804;28;2026;-82
2021/09/03 02:05:50;;;;;;;;;;;;;;;;;;2093917;28;1234;-82
2021/09/03 02:06:52;;;;;;;;;;;;;;;;;;2087599;28;2059;-83
2021/09/03 02:07:54;;;;;;;;;;;;;;;;;;2092081;28;1599;-82
2021/09/03 02:08:56;;;;;;;;;;;;;;;;;;2091544;28;1584;-82
2021/09/03 02:09:57;;;;;;;;;;;;;;;;;;2082954;28;1568;-82
2021/09/03 02:10:58;;;;;;;;;;;;;;;;;;2091349;28;1565;-82
2021/09/03 02:12:01;;;;;;;;;;;;;;;;;;2091172;28;1249;-82
2021/09/03 02:13:02;;;;;;;;;;;;;;;;;;2091421;28;1308;-82
2021/09/03 02:14:03;;;;;;;;;;;;;;;;;;2099582;28;1686;-83
2021/09/03 02:15:06;;;;;;;;;;;;;;;;;;2083099;28;1504;-82
2021/09/03 02:16:06;;;;;;;;;;;;;;;;;;2082689;28;1317;-82
2021/09/03 02:17:08;;;;;;;;;;;;;;;;;;2083133;28;1222;-82
2021/09/03 02:18:09;;;;;;;;;;;;;;;;;;2082957;28;1652;-82
2021/09/03 02:19:11;;;;;;;;;;;;;;;;;;2091376;28;1489;-83
2021/09/03 02:20:11;;;;;;;;;;;;;;;;;;2090791;28;1392;-83
2021/09/03 02:21:13;;;;;;;;;;;;;;;;;;2082725;28;1977;-83
2021/09/03 02:22:14;;;;;;;;;;;;;;;;;;2090680;28;1545;-82
2021/09/03 02:23:18;;;;;;;;;;;;;;;;;;2091190;28;1213;-83
2021/09/03 02:24:20;;;;;;;;;;;;;;;;;;2091200;28;1562;-83
2021/09/03 02:25:21;;;;;;;;;;;;;;;;;;2082916;28;1224;-82
2021/09/03 02:26:22;;;;;;;;;;;;;;;;;;2082845;28;1401;-83
2021/09/03 02:27:23;;;;;;;;;;;;;;;;;;2090629;28;1294;-87
2021/09/03 02:28:27;;;;;;;;;;;;;;;;;;2091277;28;1393;-82
2021/09/03 02:29:27;;;;;;;;;;;;;;;;;;2099641;28;1324;-83
2021/09/03 02:30:29;;;;;;;;;;;;;;;;;;2099414;28;1622;-82
2021/09/03 02:31:30;;;;;;;;;;;;;;;;;;2099240;28;1290;-82
2021/09/03 02:32:32;;;;;;;;;;;;;;;;;;2092022;28;2125;-83
2021/09/03 02:33:32;;;;;;;;;;;;;;;;;;2082526;28;1468;-82
2021/09/03 02:34:34;;;;;;;;;;;;;;;;;;2082451;28;1519;-83
2021/09/03 02:35:35;;;;;;;;;;;;;;;;;;2083019;28;1228;-82
2021/09/03 02:36:37;;;;;;;;;;;;;;;;;;2082874;28;1397;-82
2021/09/03 02:37:37;;;;;;;;;;;;;;;;;;2091127;28;1277;-82
2021/09/03 02:38:43;;;;;;;;;;;;;;;;;;2091266;28;1258;-82
2021/09/03 02:39:43;;;;;;;;;;;;;;;;;;2083500;28;1428;-82
2021/09/03 02:40:45;;;;;;;;;;;;;;;;;;2083086;28;1819;-82
2021/09/03 02:41:46;;;;;;;;;;;;;;;;;;2082496;28;1902;-82
2021/09/03 02:42:48;;;;;;;;;;;;;;;;;;2082423;28;1722;-82
2021/09/03 02:43:48;;;;;;;;;;;;;;;;;;2082269;28;1299;-83
2021/09/03 02:44:51;;;;;;;;;;;;;;;;;;2091045;28;1569;-83
2021/09/03 02:45:52;;;;;;;;;;;;;;;;;;2074660;28;1275;-82
2021/09/03 02:46:54;;;;;;;;;;;;;;;;;;2085129;28;1246;-82
2021/09/03 02:47:55;;;;;;;;;;;;;;;;;;2099177;28;1344;-81
2021/09/03 02:48:56;;;;;;;;;;;;;;;;;;2099674;28;1716;-82
2021/09/03 02:49:57;;;;;;;;;;;;;;;;;;2090161;28;1296;-82
2021/09/03 02:50:59;;;;;;;;;;;;;;;;;;2090826;28;1353;-81
2021/09/03 02:51:59;;;;;;;;;;;;;;;;;;2099092;28;1380;-82
2021/09/03 02:53:01;;;;;;;;;;;;;;;;;;2091160;28;1402;-82
2021/09/03 02:54:04;;;;;;;;;;;;;;;;;;2090950;28;872;-82
2021/09/03 02:55:06;;;;;;;;;;;;;;;;;;2099237;28;1859;-82
2021/09/03 02:56:06;;;;;;;;;;;;;;;;;;2090634;28;1394;-82
2021/09/03 02:57:10;;;;;;;;;;;;;;;;;;2091161;28;1414;-82
2021/09/03 02:58:11;;;;;;;;;;;;;;;;;;2099111;28;1539;-82
2021/09/03 02:59:12;;;;;;;;;;;;;;;;;;2090692;28;1204;-82
2021/09/03 03:00:15;;;;;;;;;;;;;;;;;;2082362;28;1334;-82
2021/09/03 03:01:16;;;;;;;;;;;;;;;;;;2091190;28;1913;-81
2021/09/03 03:02:18;;;;;;;;;;;;;;;;;;2091056;28;1718;-81
2021/09/03 03:03:18;;;;;;;;;;;;;;;;;;2091310;28;1286;-82
2021/09/03 03:04:20;;;;;;;;;;;;;;;;;;2090854;28;1567;-81
2021/09/03 03:05:21;;;;;;;;;;;;;;;;;;2092374;28;1678;-81
2021/09/03 03:06:23;;;;;;;;;;;;;;;;;;2082794;28;1332;-81
2021/09/03 03:07:24;;;;;;;;;;;;;;;;;;2082358;28;1760;-83
2021/09/03 03:08:26;;;;;;;;;;;;;;;;;;2092546;28;1651;-81
2021/09/03 03:09:28;;;;;;;;;;;;;;;;;;2084168;28;1539;-82
2021/09/03 03:10:31;;;;;;;;;;;;;;;;;;2084589;28;955;-82
2021/09/03 03:11:31;;;;;;;;;;;;;;;;;;2092446;28;1395;-82
2021/09/03 03:12:34;;;;;;;;;;;;;;;;;;2092599;28;1655;-82
2021/09/03 03:13:34;;;;;;;;;;;;;;;;;;2092130;28;1232;-82
2021/09/03 03:14:36;;;;;;;;;;;;;;;;;;2084505;28;1685;-81
2021/09/03 03:15:37;;;;;;;;;;;;;;;;;;2084226;28;1142;-82
2021/09/03 03:16:39;;;;;;;;;;;;;;;;;;2092652;28;1361;-83
2021/09/03 03:17:41;;;;;;;;;;;;;;;;;;2092481;28;811;-82
2021/09/03 03:18:42;;;;;;;;;;;;;;;;;;2092330;28;1295;-81
2021/09/03 03:19:43;;;;;;;;;;;;;;;;;;2083885;28;1631;-81
2021/09/03 03:20:45;;;;;;;;;;;;;;;;;;2084128;28;1421;-81
2021/09/03 03:21:47;;;;;;;;;;;;;;;;;;2085285;28;1906;-82
2021/09/03 03:22:47;;;;;;;;;;;;;;;;;;2092506;28;1237;-82
2021/09/03 03:23:49;;;;;;;;;;;;;;;;;;2084384;28;1302;-82
2021/09/03 03:24:52;;;;;;;;;;;;;;;;;;2085998;28;1253;-82
2021/09/03 03:25:54;;;;;;;;;;;;;;;;;;2092086;28;1228;-82
2021/09/03 03:26:55;;;;;;;;;;;;;;;;;;2084230;28;1303;-82
2021/09/03 03:27:57;;;;;;;;;;;;;;;;;;2083973;28;1398;-82
2021/09/03 03:28:58;;;;;;;;;;;;;;;;;;2084019;28;1264;-82
2021/09/03 03:30:00;;;;;;;;;;;;;;;;;;2084062;28;1613;-82
2021/09/03 03:31:00;;;;;;;;;;;;;;;;;;2075676;28;1637;-82
2021/09/03 03:32:02;;;;;;;;;;;;;;;;;;2083994;28;1773;-82
2021/09/03 03:33:03;;;;;;;;;;;;;;;;;;2084153;28;1398;-82
2021/09/03 03:34:06;;;;;;;;;;;;;;;;;;2084311;28;1345;-82
2021/09/03 03:35:08;;;;;;;;;;;;;;;;;;2075794;28;1999;-82
2021/09/03 03:36:10;;;;;;;;;;;;;;;;;;2083459;28;1657;-83
2021/09/03 03:37:11;;;;;;;;;;;;;;;;;;2092603;28;843;-83
2021/09/03 03:38:13;;;;;;;;;;;;;;;;;;2092185;28;1260;-83
2021/09/03 03:39:13;;;;;;;;;;;;;;;;;;2084711;28;1333;-83
2021/09/03 03:40:17;;;;;;;;;;;;;;;;;;2084051;28;1345;-81
2021/09/03 03:41:18;;;;;;;;;;;;;;;;;;2076267;28;1910;-84
2021/09/03 03:42:20;;;;;;;;;;;;;;;;;;2076098;28;1258;-84
2021/09/03 03:43:21;;;;;;;;;;;;;;;;;;2084237;28;1556;-84
2021/09/03 03:44:22;;;;;;;;;;;;;;;;;;2083909;28;1321;-83
2021/09/03 03:45:23;;;;;;;;;;;;;;;;;;2083629;28;1287;-87
2021/09/03 03:46:25;;;;;;;;;;;;;;;;;;2084241;28;1390;-83
2021/09/03 03:47:26;;;;;;;;;;;;;;;;;;2083743;28;1239;-84
2021/09/03 03:48:28;;;;;;;;;;;;;;;;;;2084084;28;1686;-83
2021/09/03 03:49:29;;;;;;;;;;;;;;;;;;2084581;28;1318;-83
2021/09/03 03:50:31;;;;;;;;;;;;;;;;;;2091933;28;1314;-84
2021/09/03 03:51:32;;;;;;;;;;;;;;;;;;2083968;28;1212;-83
2021/09/03 03:52:34;;;;;;;;;;;;;;;;;;2075518;28;2080;-84
2021/09/03 03:53:35;;;;;;;;;;;;;;;;;;2091856;28;1243;-84
2021/09/03 03:54:37;;;;;;;;;;;;;;;;;;2083602;28;1172;-83
2021/09/03 03:55:41;;;;;;;;;;;;;;;;;;2084150;28;1431;-83
2021/09/03 03:56:42;;;;;;;;;;;;;;;;;;2083921;28;1219;-84
2021/09/03 03:57:44;;;;;;;;;;;;;;;;;;2091858;28;1351;-83
2021/09/03 03:58:44;;;;;;;;;;;;;;;;;;2092071;28;1435;-83
2021/09/03 03:59:46;;;;;;;;;;;;;;;;;;2084568;28;2080;-84
2021/09/03 04:00:47;;;;;;;;;;;;;;;;;;2092015;28;1282;-83
2021/09/03 04:01:50;;;;;;;;;;;;;;;;;;2091986;28;1910;-83
2021/09/03 04:02:50;;;;;;;;;;;;;;;;;;2092439;28;1230;-84
2021/09/03 04:03:55;;;;;;;;;;;;;;;;;;2084424;28;1834;-84
2021/09/03 04:04:57;;;;;;;;;;;;;;;;;;2087220;28;1277;-85
2021/09/03 04:05:59;;;;;;;;;;;;;;;;;;2091759;28;1295;-84
2021/09/03 04:07:00;;;;;;;;;;;;;;;;;;2086162;28;2144;-84
2021/09/03 04:08:04;;;;;;;;;;;;;;;;;;2091579;28;1187;-84
2021/09/03 04:09:05;;;;;;;;;;;;;;;;;;2092527;28;1313;-84
2021/09/03 04:10:08;;;;;;;;;;;;;;;;;;2091889;28;2071;-84
2021/09/03 04:11:10;;;;;;;;;;;;;;;;;;2084225;28;1203;-84
2021/09/03 04:12:12;;;;;;;;;;;;;;;;;;2084290;28;1408;-84
2021/09/03 04:13:13;;;;;;;;;;;;;;;;;;2092431;28;1295;-84
2021/09/03 04:14:15;;;;;;;;;;;;;;;;;;2091966;28;1333;-84
2021/09/03 04:15:16;;;;;;;;;;;;;;;;;;2092111;28;1278;-84
2021/09/03 04:16:18;;;;;;;;;;;;;;;;;;2099984;28;1475;-84
2021/09/03 04:17:21;;;;;;;;;;;;;;;;;;2091654;28;1417;-84
2021/09/03 04:18:23;;;;;;;;;;;;;;;;;;2092006;28;1318;-84
2021/09/03 04:19:26;;;;;;;;;;;;;;;;;;2092191;28;1360;-84
2021/09/03 04:20:29;;;;;;;;;;;;;;;;;;2091592;28;1268;-84
2021/09/03 04:21:30;;;;;;;;;;;;;;;;;;2084250;28;1898;-84
2021/09/03 04:22:32;;;;;;;;;;;;;;;;;;2092082;28;1203;-84
2021/09/03 04:23:34;;;;;;;;;;;;;;;;;;2100417;28;810;-84
2021/09/03 04:24:35;;;;;;;;;;;;;;;;;;2100426;28;1219;-84
2021/09/03 04:25:37;;;;;;;;;;;;;;;;;;2092005;28;1231;-84
2021/09/03 04:26:40;;;;;;;;;;;;;;;;;;2091724;28;1313;-85
2021/09/03 04:27:42;;;;;;;;;;;;;;;;;;2083999;28;1302;-83
2021/09/03 04:28:43;;;;;;;;;;;;;;;;;;2075966;28;1279;-84
2021/09/03 04:29:45;;;;;;;;;;;;;;;;;;2075493;28;1342;-84
2021/09/03 04:30:47;;;;;;;;;;;;;;;;;;2075506;28;1464;-84
2021/09/03 04:31:49;;;;;;;;;;;;;;;;;;2075950;28;1380;-83
2021/09/03 04:32:50;;;;;;;;;;;;;;;;;;2075984;28;1228;-84
2021/09/03 04:33:52;;;;;;;;;;;;;;;;;;2076046;28;1250;-84
2021/09/03 04:34:52;;;;;;;;;;;;;;;;;;2083606;28;1356;-84
2021/09/03 04:35:55;;;;;;;;;;;;;;;;;;2083835;28;1182;-84
2021/09/03 04:36:56;;;;;;;;;;;;;;;;;;2092262;28;1297;-84
2021/09/03 04:37:58;;;;;;;;;;;;;;;;;;2092043;28;1408;-83
2021/09/03 04:38:59;;;;;;;;;;;;;;;;;;2091798;28;1352;-84
2021/09/03 04:40:01;;;;;;;;;;;;;;;;;;2094563;28;2032;-84
2021/09/03 04:41:04;;;;;;;;;;;;;;;;;;2100447;28;898;-84
2021/09/03 04:42:08;;;;;;;;;;;;;;;;;;2100224;28;1914;-84
2021/09/03 04:43:09;;;;;;;;;;;;;;;;;;2092766;28;1443;-84
2021/09/03 04:44:10;;;;;;;;;;;;;;;;;;2092029;28;1286;-84
2021/09/03 04:45:12;;;;;;;;;;;;;;;;;;2079234;28;1302;-83
2021/09/03 04:46:16;;;;;;;;;;;;;;;;;;2083380;28;1184;-84
2021/09/03 04:47:18;;;;;;;;;;;;;;;;;;2092477;28;1400;-84
2021/09/03 04:48:19;;;;;;;;;;;;;;;;;;2091655;28;1394;-84
2021/09/03 04:49:22;;;;;;;;;;;;;;;;;;2091900;28;1231;-84
2021/09/03 04:50:23;;;;;;;;;;;;;;;;;;2083120;28;1391;-84
2021/09/03 04:51:24;;;;;;;;;;;;;;;;;;2091601;28;1198;-85
2021/09/03 04:52:26;;;;;;;;;;;;;;;;;;2091612;28;1228;-84
2021/09/03 04:53:27;;;;;;;;;;;;;;;;;;2083364;28;1363;-85
2021/09/03 04:54:31;;;;;;;;;;;;;;;;;;2092148;28;1350;-84
2021/09/03 04:55:32;;;;;;;;;;;;;;;;;;2091793;28;1255;-85
2021/09/03 04:56:37;;;;;;;;;;;;;;;;;;2091671;28;1334;-84
2021/09/03 04:57:40;;;;;;;;;;;;;;;;;;2091756;28;1194;-84
2021/09/03 04:58:42;;;;;;;;;;;;;;;;;;2092116;28;1351;-84
2021/09/03 04:59:44;;;;;;;;;;;;;;;;;;2091853;28;1326;-84
2021/09/03 05:00:45;;;;;;;;;;;;;;;;;;2092085;28;1354;-84
2021/09/03 05:01:46;;;;;;;;;;;;;;;;;;2098754;28;1910;-84
2021/09/03 05:02:48;;;;;;;;;;;;;;;;;;2083579;28;1204;-84
2021/09/03 05:03:49;;;;;;;;;;;;;;;;;;2083392;28;1309;-84
2021/09/03 05:04:51;;;;;;;;;;;;;;;;;;2093166;28;1282;-84
2021/09/03 05:05:52;;;;;;;;;;;;;;;;;;2091513;28;1369;-84
2021/09/03 05:06:53;;;;;;;;;;;;;;;;;;2098364;28;1343;-84
2021/09/03 05:07:55;;;;;;;;;;;;;;;;;;2083100;28;1303;-83
2021/09/03 05:08:56;;;;;;;;;;;;;;;;;;2092116;28;835;-83
2021/09/03 05:09:58;;;;;;;;;;;;;;;;;;2091871;28;1254;-84
2021/09/03 05:10:59;;;;;;;;;;;;;;;;;;2091672;28;1302;-84
2021/09/03 05:12:01;;;;;;;;;;;;;;;;;;2083043;28;1224;-84
2021/09/03 05:13:03;;;;;;;;;;;;;;;;;;2083876;28;1362;-84
2021/09/03 05:14:05;;;;;;;;;;;;;;;;;;2075361;28;1187;-84
2021/09/03 05:15:08;;;;;;;;;;;;;;;;;;2075259;28;1207;-84
2021/09/03 05:16:11;;;;;;;;;;;;;;;;;;2083324;28;1276;-84
2021/09/03 05:17:12;;;;;;;;;;;;;;;;;;2083652;28;1344;-84
2021/09/03 05:18:15;;;;;;;;;;;;;;;;;;2083229;28;1168;-84
2021/09/03 05:19:16;;;;;;;;;;;;;;;;;;2075584;28;1336;-84
2021/09/03 05:20:18;;;;;;;;;;;;;;;;;;2079880;28;1340;-84
2021/09/03 05:21:18;;;;;;;;;;;;;;;;;;2074972;28;1452;-84
2021/09/03 05:22:20;;;;;;;;;;;;;;;;;;2074854;28;1983;-83
2021/09/03 05:23:23;;;;;;;;;;;;;;;;;;2083733;28;1214;-84
2021/09/03 05:24:25;;;;;;;;;;;;;;;;;;2083443;28;1515;-83
2021/09/03 05:25:26;;;;;;;;;;;;;;;;;;2083504;28;1304;-85
2021/09/03 05:26:28;;;;;;;;;;;;;;;;;;2083480;28;1258;-84
2021/09/03 05:27:28;;;;;;;;;;;;;;;;;;2089592;28;2071;-84
2021/09/03 05:28:32;;;;;;;;;;;;;;;;;;2091559;28;1302;-83
2021/09/03 05:29:32;;;;;;;;;;;;;;;;;;2091044;28;1357;-83
2021/09/03 05:30:34;;;;;;;;;;;;;;;;;;2090732;28;2096;-83
2021/09/03 05:31:35;;;;;;;;;;;;;;;;;;2090715;28;1211;-83
2021/09/03 05:32:37;;;;;;;;;;;;;;;;;;2091404;28;1243;-83
2021/09/03 05:33:38;;;;;;;;;;;;;;;;;;2099382;28;1394;-83
2021/09/03 05:34:40;;;;;;;;;;;;;;;;;;2099799;28;1431;-83
2021/09/03 05:35:42;;;;;;;;;;;;;;;;;;2099604;28;842;-84
2021/09/03 05:36:44;;;;;;;;;;;;;;;;;;2100029;28;1361;-84
2021/09/03 05:37:47;;;;;;;;;;;;;;;;;;2091695;28;1283;-84
2021/09/03 05:38:47;;;;;;;;;;;;;;;;;;2083415;28;1271;-83
2021/09/03 05:39:49;;;;;;;;;;;;;;;;;;2084382;28;2057;-84
2021/09/03 05:40:51;;;;;;;;;;;;;;;;;;2091371;28;1327;-84
2021/09/03 05:41:53;;;;;;;;;;;;;;;;;;2083826;28;1321;-84
2021/09/03 05:42:53;;;;;;;;;;;;;;;;;;2091445;28;1954;-84
2021/09/03 05:43:57;;;;;;;;;;;;;;;;;;2091178;28;1416;-84
2021/09/03 05:44:58;;;;;;;;;;;;;;;;;;2083271;28;1303;-83
2021/09/03 05:46:01;;;;;;;;;;;;;;;;;;2091562;28;1295;-83
2021/09/03 05:47:02;;;;;;;;;;;;;;;;;;2090996;28;1425;-83
2021/09/03 05:48:04;;;;;;;;;;;;;;;;;;2082750;28;1199;-83
2021/09/03 05:49:05;;;;;;;;;;;;;;;;;;2091390;28;1290;-83
2021/09/03 05:50:07;;;;;;;;;;;;;;;;;;2090938;28;1353;-83
2021/09/03 05:51:08;;;;;;;;;;;;;;;;;;2083187;28;1211;-83
2021/09/03 05:52:10;;;;;;;;;;;;;;;;;;2082922;28;1250;-83
2021/09/03 05:53:10;;;;;;;;;;;;;;;;;;2083427;28;1211;-82
2021/09/03 05:54:13;;;;;;;;;;;;;;;;;;2083110;28;1536;-83
2021/09/03 05:55:14;;;;;;;;;;;;;;;;;;2083249;28;1367;-85
2021/09/03 05:56:16;;;;;;;;;;;;;;;;;;2091047;28;1303;-84
2021/09/03 05:57:16;;;;;;;;;;;;;;;;;;2093420;28;1367;-85
2021/09/03 05:58:18;;;;;;;;;;;;;;;;;;2091095;28;1314;-85
2021/09/03 05:59:21;;;;;;;;;;;;;;;;;;2091208;28;1425;-85
2021/09/03 06:00:23;;;;;;;;;;;;;;;;;;2090989;28;1206;-85
2021/09/03 06:01:23;;;;;;;;;;;;;;;;;;2091153;28;1433;-85
2021/09/03 06:02:27;;;;;;;;;;;;;;;;;;2085133;28;2073;-84
2021/09/03 06:03:27;;;;;;;;;;;;;;;;;;2075317;28;1181;-85
2021/09/03 06:04:30;;;;;;;;;;;;;;;;;;2074663;28;1335;-84
2021/09/03 06:05:33;;;;;;;;;;;;;;;;;;2091586;28;1395;-85
2021/09/03 06:06:37;;;;;;;;;;;;;;;;;;2094240;28;1413;-84
2021/09/03 06:07:39;;;;;;;;;;;;;;;;;;2090617;28;2104;-85
2021/09/03 06:08:39;;;;;;;;;;;;;;;;;;2083321;28;1207;-84
2021/09/03 06:09:41;;;;;;;;;;;;;;;;;;2082533;28;1281;-85
2021/09/03 06:10:46;;;;;;;;;;;;;;;;;;2082891;28;1428;-84
2021/09/03 06:11:47;;;;;;;;;;;;;;;;;;2083178;28;2022;-85
2021/09/03 06:12:50;;;;;;;;;;;;;;;;;;2091306;28;1152;-84
2021/09/03 06:13:50;;;;;;;;;;;;;;;;;;2083462;28;1326;-85
2021/09/03 06:14:54;;;;;;;;;;;;;;;;;;2084491;28;1981;-85
2021/09/03 06:15:55;;;;;;;;;;;;;;;;;;2095833;28;1345;-84
2021/09/03 06:16:56;;;;;;;;;;;;;;;;;;2090893;28;1284;-85
2021/09/03 06:17:57;;;;;;;;;;;;;;;;;;2083209;28;1311;-84
2021/09/03 06:18:59;;;;;;;;;;;;;;;;;;2083082;28;1362;-85
2021/09/03 06:20:00;;;;;;;;;;;;;;;;;;2085478;28;2037;-84
2021/09/03 06:21:02;;;;;;;;;;;;;;;;;;2082703;28;1320;-84
2021/09/03 06:22:04;;;;;;;;;;;;;;;;;;2086349;28;1280;-84
2021/09/03 06:23:06;;;;;;;;;;;;;;;;;;2083041;28;1902;-84
2021/09/03 06:24:27;;;;;;;;;;;;;;;;;;2074744;28;1302;-84
2021/09/03 06:25:30;;;;;;;;;;;;;;;;;;2089716;28;1296;-84
2021/09/03 06:26:33;;;;;;;;;;;;;;;;;;2091816;28;1401;-84
2021/09/03 06:27:33;;;;;;;;;;;;;;;;;;2087564;28;1318;-84
2021/09/03 06:28:35;;;;;;;;;;;;;;;;;;2091528;28;1298;-84
2021/09/03 06:29:37;;;;;;;;;;;;;;;;;;2091339;28;1262;-85
2021/09/03 06:30:43;;;;;;;;;;;;;;;;;;2083059;28;1708;-84
2021/09/03 06:31:44;;;;;;;;;;;;;;;;;;2090832;28;1355;-84
2021/09/03 06:32:46;;;;;;;;;;;;;;;;;;2097290;28;1483;-84
2021/09/03 06:33:47;;;;;;;;;;;;;;;;;;2091478;28;1240;-84
2021/09/03 06:34:50;;;;;;;;;;;;;;;;;;2089225;28;2100;-85
2021/09/03 06:35:51;;;;;;;;;;;;;;;;;;2084194;28;1320;-85
2021/09/03 06:36:52;;;;;;;;;;;;;;;;;;2091358;28;1333;-85
2021/09/03 06:37:54;;;;;;;;;;;;;;;;;;2084564;28;1346;-84
2021/09/03 06:38:55;;;;;;;;;;;;;;;;;;2091332;28;1238;-84
2021/09/03 06:39:58;;;;;;;;;;;;;;;;;;2082198;28;1243;-85
2021/09/03 06:41:00;;;;;;;;;;;;;;;;;;2091575;28;765;-84
2021/09/03 06:42:00;;;;;;;;;;;;;;;;;;2093161;28;1717;-84
2021/09/03 06:43:03;;;;;;;;;;;;;;;;;;2074759;28;1963;-84
2021/09/03 06:44:04;;;;;;;;;;;;;;;;;;2082538;28;1309;-85
2021/09/03 06:45:06;;;;;;;;;;;;;;;;;;2091284;28;1400;-85
2021/09/03 06:46:08;;;;;;;;;;;;;;;;;;2090913;28;1306;-84
2021/09/03 06:47:11;;;;;;;;;;;;;;;;;;2091804;28;1306;-85
2021/09/03 06:48:13;;;;;;;;;;;;;;;;;;2074873;28;1392;-86
2021/09/03 06:49:14;;;;;;;;;;;;;;;;;;2076406;28;1460;-87
2021/09/03 06:50:16;;;;;;;;;;;;;;;;;;2085356;28;1428;-88
2021/09/03 06:51:17;;;;;;;;;;;;;;;;;;2090940;28;1396;-85
2021/09/03 06:52:28;;;;;;;;;;;;;;;;;;2093363;28;1317;-85
2021/09/03 06:53:30;;;;;;;;;;;;;;;;;;2091067;28;1374;-86
2021/09/03 06:54:31;;;;;;;;;;;;;;;;;;2090883;28;1352;-87
2021/09/03 06:55:33;;;;;;;;;;;;;;;;;;2090849;28;2092;-87
2021/09/03 06:56:34;;;;;;;;;;;;;;;;;;2083282;28;1369;-86
2021/09/03 06:57:39;;;;;;;;;;;;;;;;;;2076388;28;1646;-85
2021/09/03 06:58:39;;;;;;;;;;;;;;;;;;2099029;28;1073;-86
2021/09/03 06:59:41;;;;;;;;;;;;;;;;;;2090485;28;1241;-84
2021/09/03 07:00:43;;;;;;;;;;;;;;;;;;2086152;28;1613;-84
2021/09/03 07:01:46;;;;;;;;;;;;;;;;;;2082553;28;1547;-83
2021/09/03 07:02:48;;;;;;;;;;;;;;;;;;2098181;28;1979;-83
2021/09/03 07:03:49;;;;;;;;;;;;;;;;;;2091243;28;1213;-85
2021/09/03 07:04:51;;;;;;;;;;;;;;;;;;2089051;28;2033;-85
2021/09/03 07:05:52;;;;;;;;;;;;;;;;;;2087393;28;1506;-84
2021/09/03 07:06:54;;;;;;;;;;;;;;;;;;2078015;28;1770;-86
2021/09/03 07:07:56;;;;;;;;;;;;;;;;;;2085679;28;1560;-85
2021/09/03 07:08:57;;;;;;;;;;;;;;;;;;2091442;28;1444;-85